Time;durP1;ratioP1;P1;durP2;ratioP2;P2;SDS_P1;SDS_P2;PMS_P1;PMS_P2;Temp;Humidity;BMP_temperature;BMP_pressure;BME280_temperature;BME280_humidity;BME280_pressure;Samples;Min_cycle;Max_cycle;Signal;HPM_P1;HPM_P2
2023/03/14 00:00:30;;;;;;;0.30;0.30;;;;;;;;;;10554033;28;20412;-78
2023/03/14 00:05:43;;;;;;;1.67;0.40;;;;;;;;;;10558783;28;20039;-78
2023/03/14 00:10:47;;;;;;;0.50;0.20;;;;;;;;;;10551691;28;20051;-78
2023/03/14 00:15:52;;;;;;;0.40;0.30;;;;;;;;;;10558993;28;20057;-79
2023/03/14 00:20:58;;;;;;;2.42;0.30;;;;;;;;;;10573370;28;20450;-78
2023/03/14 00:26:11;;;;;;;0.52;0.10;;;;;;;;;;10565048;28;20054;-78
2023/03/14 00:31:17;;;;;;;0.40;0.15;;;;;;;;;;10565378;28;20145;-78
2023/03/14 00:36:20;;;;;;;0.40;0.20;;;;;;;;;;10559120;28;20544;-78
2023/03/14 00:41:24;;;;;;;0.88;0.30;;;;;;;;;;10565443;28;20123;-77
2023/03/14 00:46:29;;;;;;;0.20;0.13;;;;;;;;;;10560831;28;20507;-77
2023/03/14 00:51:32;;;;;;;0.17;0.17;;;;;;;;;;10561626;28;20666;-77
2023/03/14 00:56:43;;;;;;;0.20;0.10;;;;;;;;;;10555563;28;20047;-77
2023/03/14 01:02:00;;;;;;;0.20;0.20;;;;;;;;;;10563892;28;20052;-77
2023/03/14 01:07:12;;;;;;;0.30;0.20;;;;;;;;;;10557591;28;20036;-77
2023/03/14 01:12:16;;;;;;;1.30;0.20;;;;;;;;;;10570007;28;20423;-76
2023/03/14 01:17:22;;;;;;;0.10;0.10;;;;;;;;;;10555012;28;20603;-77
2023/03/14 01:22:27;;;;;;;0.13;0.13;;;;;;;;;;10562682;27;20116;-74
2023/03/14 01:27:31;;;;;;;0.82;0.40;;;;;;;;;;10561957;28;20034;-75
2023/03/14 01:32:37;;;;;;;0.50;0.23;;;;;;;;;;10567322;28;20530;-77
2023/03/14 01:37:49;;;;;;;0.45;0.20;;;;;;;;;;10566243;28;20036;-77
2023/03/14 01:42:56;;;;;;;1.00;0.47;;;;;;;;;;10561923;28;20088;-76
2023/03/14 01:48:02;;;;;;;3.30;0.35;;;;;;;;;;10567699;28;20036;-76
2023/03/14 01:53:05;;;;;;;0.82;0.30;;;;;;;;;;10579703;28;20523;-78
2023/03/14 01:58:09;;;;;;;1.20;0.40;;;;;;;;;;10570625;28;20111;-77
2023/03/14 02:03:17;;;;;;;0.10;0.10;;;;;;;;;;10568786;28;20103;-78
2023/03/14 02:08:22;;;;;;;2.55;0.28;;;;;;;;;;10541644;28;20036;-77
2023/03/14 02:13:25;;;;;;;0.30;0.30;;;;;;;;;;10562392;28;20126;-77
2023/03/14 02:18:42;;;;;;;0.40;0.17;;;;;;;;;;10558784;28;20139;-78
2023/03/14 02:23:52;;;;;;;0.10;0.08;;;;;;;;;;10558828;28;20048;-78
2023/03/14 02:29:00;;;;;;;0.57;0.38;;;;;;;;;;10558464;28;20044;-78
2023/03/14 02:34:04;;;;;;;0.32;0.20;;;;;;;;;;10559746;28;20082;-78
2023/03/14 02:39:11;;;;;;;0.65;0.13;;;;;;;;;;10556828;28;20043;-78
2023/03/14 02:44:19;;;;;;;0.43;0.22;;;;;;;;;;10556579;28;20043;-79
2023/03/14 02:49:23;;;;;;;0.10;0.10;;;;;;;;;;10552185;28;20397;-78
2023/03/14 02:54:27;;;;;;;0.15;0.15;;;;;;;;;;10561824;28;20424;-79
2023/03/14 02:59:32;;;;;;;0.20;0.20;;;;;;;;;;10557845;28;20188;-80
2023/03/14 03:04:36;;;;;;;3.33;0.30;;;;;;;;;;10550128;28;20043;-77
2023/03/14 03:09:41;;;;;;;0.98;0.30;;;;;;;;;;10548694;28;20505;-78
2023/03/14 03:14:45;;;;;;;0.50;0.10;;;;;;;;;;10554390;28;20048;-78
2023/03/14 03:19:50;;;;;;;0.68;0.30;;;;;;;;;;10551214;28;20032;-77
2023/03/14 03:24:53;;;;;;;0.70;0.30;;;;;;;;;;10554870;28;20032;-77
2023/03/14 03:30:01;;;;;;;0.05;0.05;;;;;;;;;;10555638;28;20794;-78
2023/03/14 03:35:08;;;;;;;0.43;0.20;;;;;;;;;;10559294;28;20127;-78
2023/03/14 03:40:14;;;;;;;0.45;0.20;;;;;;;;;;10554694;28;20051;-77
2023/03/14 03:45:18;;;;;;;;;;;;;;;;;;10551440;28;20061;-77
2023/03/14 03:50:33;;;;;;;4.40;1.38;;;;;;;;;;10553827;28;20388;-77
2023/03/14 03:55:38;;;;;;;11.13;2.95;;;;;;;;;;10556330;28;20483;-78
2023/03/14 04:00:43;;;;;;;27.55;6.10;;;;;;;;;;10554398;28;20031;-77
2023/03/14 04:05:48;;;;;;;11.60;2.75;;;;;;;;;;10555613;28;20071;-78
2023/03/14 04:10:55;;;;;;;12.70;3.08;;;;;;;;;;10549477;28;20089;-77
2023/03/14 04:15:58;;;;;;;0.65;0.50;;;;;;;;;;10554893;28;20062;-77
2023/03/14 04:21:03;;;;;;;0.20;0.20;;;;;;;;;;10545986;28;20074;-77
2023/03/14 04:26:07;;;;;;;0.57;0.30;;;;;;;;;;10552216;28;20036;-78
2023/03/14 04:31:12;;;;;;;0.28;0.20;;;;;;;;;;10554218;28;20036;-77
2023/03/14 04:36:16;;;;;;;0.00;0.00;;;;;;;;;;10553126;28;20040;-77
2023/03/14 04:41:21;;;;;;;0.10;0.10;;;;;;;;;;10548905;28;20120;-78
2023/03/14 04:46:25;;;;;;;0.10;0.10;;;;;;;;;;10553368;28;20046;-77
2023/03/14 04:51:30;;;;;;;0.05;0.05;;;;;;;;;;10551227;28;20042;-77
2023/03/14 04:56:32;;;;;;;;;;;;;;;;;;10552830;28;20058;-79
2023/03/14 05:01:35;;;;;;;0.10;0.10;;;;;;;;;;10564494;28;19966;-78
2023/03/14 05:06:40;;;;;;;0.10;0.10;;;;;;;;;;10557063;27;20374;-79
2023/03/14 05:11:45;;;;;;;0.28;0.17;;;;;;;;;;10563892;28;20114;-78
2023/03/14 05:16:47;;;;;;;0.00;0.00;;;;;;;;;;10550452;28;20043;-77
2023/03/14 05:22:04;;;;;;;0.20;0.10;;;;;;;;;;10573635;27;20110;-77
2023/03/14 05:27:09;;;;;;;0.30;0.00;;;;;;;;;;10575655;27;20062;-77
2023/03/14 05:32:12;;;;;;;0.85;0.00;;;;;;;;;;10569371;27;20137;-76
2023/03/14 05:37:16;;;;;;;0.10;0.10;;;;;;;;;;10578145;27;20495;-79
2023/03/14 05:42:22;;;;;;;0.00;0.00;;;;;;;;;;10577225;27;20522;-77
2023/03/14 05:47:30;;;;;;;0.10;0.10;;;;;;;;;;10574983;27;20076;-78
2023/03/14 05:52:37;;;;;;;0.63;0.40;;;;;;;;;;10563245;27;20039;-77
2023/03/14 05:57:40;;;;;;;1.55;0.25;;;;;;;;;;10558756;28;20042;-78
2023/03/14 06:02:44;;;;;;;0.20;0.10;;;;;;;;;;10554498;28;20044;-77
2023/03/14 06:07:49;;;;;;;0.53;0.20;;;;;;;;;;10547126;28;20385;-77
2023/03/14 06:12:53;;;;;;;0.68;0.28;;;;;;;;;;10566008;27;20408;-76
2023/03/14 06:17:57;;;;;;;0.30;0.30;;;;;;;;;;10556958;27;20023;-78
2023/03/14 06:23:02;;;;;;;0.08;0.08;;;;;;;;;;10564997;27;20080;-78
2023/03/14 06:28:15;;;;;;;0.75;0.17;;;;;;;;;;10568530;27;20034;-77
2023/03/14 06:33:18;;;;;;;0.90;0.30;;;;;;;;;;10573960;27;20046;-78
2023/03/14 06:38:28;;;;;;;0.20;0.20;;;;;;;;;;10563187;27;20414;-77
2023/03/14 06:43:30;;;;;;;;;;;;;;;;;;10588712;27;20127;-77
2023/03/14 06:48:33;;;;;;;0.10;0.10;;;;;;;;;;10589245;27;20014;-77
2023/03/14 06:53:37;;;;;;;0.93;0.40;;;;;;;;;;10560063;27;20074;-79
2023/03/14 06:58:40;;;;;;;;;;;;;;;;;;10568220;27;20032;-79
2023/03/14 07:03:44;;;;;;;1.90;1.27;;;;;;;;;;10569991;28;19919;-80
2023/03/14 07:08:51;;;;;;;2.15;1.70;;;;;;;;;;10575494;27;20131;-81
2023/03/14 07:13:58;;;;;;;3.97;2.50;;;;;;;;;;10568238;28;20043;-86
2023/03/14 07:19:04;;;;;;;1.10;0.70;;;;;;;;;;10583798;27;20054;-84
2023/03/14 07:24:16;;;;;;;0.60;0.55;;;;;;;;;;10564488;28;20122;-85
2023/03/14 07:29:30;;;;;;;0.10;0.10;;;;;;;;;;10561145;28;20036;-83
2023/03/14 07:34:36;;;;;;;0.73;0.30;;;;;;;;;;10555021;28;20150;-86
2023/03/14 07:39:55;;;;;;;1.73;0.40;;;;;;;;;;10565142;27;20114;-83
2023/03/14 07:44:59;;;;;;;0.40;0.17;;;;;;;;;;10577307;28;20095;-85
2023/03/14 07:50:07;;;;;;;0.88;0.38;;;;;;;;;;10593491;28;20056;-85
2023/03/14 07:55:13;;;;;;;0.25;0.22;;;;;;;;;;10599714;28;20024;-86
2023/03/14 08:00:16;;;;;;;0.13;0.13;;;;;;;;;;10600998;28;20096;-84
2023/03/14 08:05:20;;;;;;;0.45;0.32;;;;;;;;;;10598225;28;20399;-84
2023/03/14 08:10:28;;;;;;;1.60;0.20;;;;;;;;;;10591108;28;20461;-87
2023/03/14 08:15:39;;;;;;;0.38;0.15;;;;;;;;;;10560445;28;20492;-88
2023/03/14 08:20:43;;;;;;;0.20;0.20;;;;;;;;;;10556595;28;20038;-83
2023/03/14 08:25:52;;;;;;;0.93;0.40;;;;;;;;;;10567348;28;20073;-87
2023/03/14 08:31:02;;;;;;;1.55;0.20;;;;;;;;;;10555219;28;20047;-88
2023/03/14 08:36:14;;;;;;;0.10;0.10;;;;;;;;;;10574841;28;20044;-87
2023/03/14 08:41:30;;;;;;;0.75;0.30;;;;;;;;;;10565549;28;20522;-86
2023/03/14 08:46:34;;;;;;;0.70;0.30;;;;;;;;;;10570322;27;20058;-85
2023/03/14 08:51:37;;;;;;;1.27;0.20;;;;;;;;;;10572838;28;20032;-87
2023/03/14 08:56:55;;;;;;;2.50;0.38;;;;;;;;;;10561278;28;20123;-84
2023/03/14 09:01:59;;;;;;;0.20;0.20;;;;;;;;;;10576158;28;20035;-85
2023/03/14 09:07:04;;;;;;;1.13;0.20;;;;;;;;;;10573793;28;20506;-86
2023/03/14 09:12:13;;;;;;;0.50;0.25;;;;;;;;;;10572439;28;20040;-85
2023/03/14 09:17:28;;;;;;;0.30;0.20;;;;;;;;;;10610375;28;21273;-85
2023/03/14 09:22:42;;;;;;;0.35;0.30;;;;;;;;;;10601428;27;20039;-85
2023/03/14 09:27:50;;;;;;;3.87;0.40;;;;;;;;;;10577014;28;20051;-85
2023/03/14 09:32:54;;;;;;;0.17;0.10;;;;;;;;;;10563530;27;20138;-85
2023/03/14 09:38:05;;;;;;;1.73;0.50;;;;;;;;;;10566346;28;20048;-86
2023/03/14 09:43:12;;;;;;;0.52;0.30;;;;;;;;;;10561308;28;20791;-84
2023/03/14 09:48:17;;;;;;;0.30;0.10;;;;;;;;;;10561816;28;20047;-86
2023/03/14 09:53:23;;;;;;;2.78;0.38;;;;;;;;;;10562258;27;20093;-84
2023/03/14 09:58:29;;;;;;;2.78;0.40;;;;;;;;;;10559821;27;20127;-86
2023/03/14 10:03:33;;;;;;;0.65;0.30;;;;;;;;;;10568908;28;20031;-85
2023/03/14 10:08:36;;;;;;;;;;;;;;;;;;10559979;28;20036;-85
2023/03/14 10:13:50;;;;;;;1.73;1.20;;;;;;;;;;10560180;28;19961;-84
2023/03/14 10:18:55;;;;;;;1.00;0.67;;;;;;;;;;10553613;28;20504;-85
2023/03/14 10:24:08;;;;;;;2.00;0.60;;;;;;;;;;10559040;28;20032;-85
2023/03/14 10:29:29;;;;;;;1.00;1.00;;;;;;;;;;10568265;28;20039;-86
2023/03/14 10:35:04;;;;;;;0.70;0.30;;;;;;;;;;10549720;28;20039;-83
2023/03/14 10:40:14;;;;;;;1.00;0.45;;;;;;;;;;10554178;27;20036;-82
2023/03/14 10:45:34;;;;;;;1.40;0.70;;;;;;;;;;10556621;27;20135;-84
2023/03/14 10:50:39;;;;;;;2.80;0.57;;;;;;;;;;10559724;28;20024;-83
2023/03/14 10:55:52;;;;;;;2.28;0.73;;;;;;;;;;10558521;28;20495;-83
2023/03/14 11:01:13;;;;;;;3.38;0.30;;;;;;;;;;10547819;28;20059;-83
2023/03/14 11:06:20;;;;;;;0.45;0.32;;;;;;;;;;10556298;28;20455;-83
2023/03/14 11:11:30;;;;;;;1.42;0.45;;;;;;;;;;10560978;28;20044;-83
2023/03/14 11:16:40;;;;;;;0.60;0.38;;;;;;;;;;10552154;28;20242;-82
2023/03/14 11:21:48;;;;;;;0.52;0.30;;;;;;;;;;10558132;28;20403;-82
2023/03/14 11:26:54;;;;;;;0.25;0.25;;;;;;;;;;10553709;28;20036;-81
2023/03/14 11:32:15;;;;;;;0.40;0.35;;;;;;;;;;10558318;28;20127;-82
2023/03/14 11:37:23;;;;;;;1.67;0.70;;;;;;;;;;10553002;28;20097;-83
2023/03/14 11:42:27;;;;;;;0.47;0.30;;;;;;;;;;10547513;28;20032;-82
2023/03/14 11:47:35;;;;;;;0.35;0.30;;;;;;;;;;10554178;28;20039;-81
2023/03/14 11:52:40;;;;;;;0.63;0.20;;;;;;;;;;10551617;28;20127;-82
2023/03/14 11:57:56;;;;;;;0.85;0.40;;;;;;;;;;10561212;28;20153;-82
2023/03/14 12:03:00;;;;;;;;;;;;;;;;;;10591490;28;20031;-84
2023/03/14 12:08:32;;;;;;;0.40;0.40;;;;;;;;;;10578643;28;19920;-87
2023/03/14 12:13:38;;;;;;;0.47;0.40;;;;;;;;;;10568784;28;20047;-82
2023/03/14 12:18:42;;;;;;;0.90;0.32;;;;;;;;;;10555886;28;20036;-81
2023/03/14 12:23:55;;;;;;;0.28;0.25;;;;;;;;;;10565974;28;20044;-80
2023/03/14 12:29:13;;;;;;;0.00;0.00;;;;;;;;;;10552918;28;20040;-81
2023/03/14 12:34:28;;;;;;;0.60;0.40;;;;;;;;;;10556472;28;20043;-80
2023/03/14 12:39:36;;;;;;;0.20;0.20;;;;;;;;;;10557753;28;20469;-80
2023/03/14 12:44:44;;;;;;;2.50;0.52;;;;;;;;;;10560939;28;20305;-80
2023/03/14 12:49:55;;;;;;;0.10;0.10;;;;;;;;;;10559299;28;20055;-81
2023/03/14 12:55:02;;;;;;;0.63;0.40;;;;;;;;;;10555788;28;20047;-80
2023/03/14 13:00:17;;;;;;;0.98;0.30;;;;;;;;;;10561122;28;20488;-81
2023/03/14 13:05:24;;;;;;;1.20;0.43;;;;;;;;;;10567691;28;20039;-81
2023/03/14 13:10:30;;;;;;;1.20;0.35;;;;;;;;;;10579342;28;20094;-81
2023/03/14 13:15:42;;;;;;;0.50;0.30;;;;;;;;;;10589833;28;20036;-80
2023/03/14 13:20:47;;;;;;;0.20;0.20;;;;;;;;;;10581834;27;20100;-80
2023/03/14 13:25:52;;;;;;;0.35;0.30;;;;;;;;;;10583884;27;20070;-79
2023/03/14 13:30:57;;;;;;;1.65;0.20;;;;;;;;;;10575207;28;20055;-80
2023/03/14 13:36:02;;;;;;;1.48;0.15;;;;;;;;;;10564984;27;20046;-82
2023/03/14 13:41:08;;;;;;;1.33;0.28;;;;;;;;;;10571025;28;20032;-81
2023/03/14 13:46:15;;;;;;;0.68;0.30;;;;;;;;;;10574872;28;20031;-80
2023/03/14 13:51:20;;;;;;;0.90;0.30;;;;;;;;;;10564173;27;20054;-80
2023/03/14 13:56:25;;;;;;;0.10;0.10;;;;;;;;;;10564060;28;20105;-80
2023/03/14 14:01:39;;;;;;;0.10;0.10;;;;;;;;;;10555219;28;20043;-79
2023/03/14 14:06:47;;;;;;;0.10;0.10;;;;;;;;;;10558722;28;20071;-79
2023/03/14 14:11:57;;;;;;;0.35;0.20;;;;;;;;;;10558787;28;20028;-79
2023/03/14 14:17:19;;;;;;;0.28;0.15;;;;;;;;;;10563478;28;20067;-80
2023/03/14 14:22:23;;;;;;;0.10;0.10;;;;;;;;;;10555448;28;20038;-77
2023/03/14 14:27:31;;;;;;;4.18;0.50;;;;;;;;;;10560494;28;20134;-79
2023/03/14 14:32:37;;;;;;;2.05;0.32;;;;;;;;;;10548485;28;20043;-78
2023/03/14 14:37:42;;;;;;;0.80;0.28;;;;;;;;;;10555127;28;20035;-80
2023/03/14 14:42:48;;;;;;;0.10;0.10;;;;;;;;;;10565554;28;20035;-82
2023/03/14 14:47:54;;;;;;;0.35;0.30;;;;;;;;;;10567596;28;20051;-81
2023/03/14 14:52:58;;;;;;;0.10;0.10;;;;;;;;;;10553703;28;20090;-82
2023/03/14 14:58:18;;;;;;;1.67;0.20;;;;;;;;;;10555832;28;20051;-81
2023/03/14 15:03:27;;;;;;;0.10;0.10;;;;;;;;;;10545284;28;20047;-82
2023/03/14 15:08:31;;;;;;;0.45;0.30;;;;;;;;;;10559686;28;20031;-77
2023/03/14 15:13:35;;;;;;;0.25;0.20;;;;;;;;;;10554945;28;20405;-78
2023/03/14 15:18:50;;;;;;;0.10;0.10;;;;;;;;;;10552825;28;20073;-81
2023/03/14 15:23:54;;;;;;;0.30;0.30;;;;;;;;;;10555887;28;20061;-82
2023/03/14 15:29:03;;;;;;;0.43;0.40;;;;;;;;;;10552887;28;20534;-81
2023/03/14 15:34:09;;;;;;;0.68;0.50;;;;;;;;;;10548780;28;20056;-80
2023/03/14 15:39:14;;;;;;;0.47;0.47;;;;;;;;;;10550510;28;20574;-81
2023/03/14 15:44:20;;;;;;;2.17;0.63;;;;;;;;;;10557405;28;20036;-79
2023/03/14 15:49:24;;;;;;;1.00;0.57;;;;;;;;;;10546510;28;20035;-79
2023/03/14 15:54:28;;;;;;;0.47;0.47;;;;;;;;;;10548395;28;20476;-79
2023/03/14 15:59:39;;;;;;;0.60;0.60;;;;;;;;;;10549068;28;20108;-82
2023/03/14 16:04:43;;;;;;;0.70;0.70;;;;;;;;;;10554962;28;20059;-80
2023/03/14 16:09:46;;;;;;;1.50;0.50;;;;;;;;;;10546580;28;20067;-79
2023/03/14 16:14:51;;;;;;;1.50;0.57;;;;;;;;;;10546947;28;20089;-78
2023/03/14 16:19:55;;;;;;;0.50;0.40;;;;;;;;;;10553048;28;20055;-80
2023/03/14 16:30:18;;;;;;;1.15;0.57;;;;;;;;;;10564588;28;20051;-81
2023/03/14 16:35:21;;;;;;;1.45;0.63;;;;;;;;;;10566741;28;20050;-82
2023/03/14 16:40:25;;;;;;;1.80;0.70;;;;;;;;;;10557729;28;20043;-80
2023/03/14 16:45:30;;;;;;;0.53;0.53;;;;;;;;;;10553650;28;20047;-80
2023/03/14 16:50:34;;;;;;;2.35;0.80;;;;;;;;;;10556905;28;20043;-80
2023/03/14 16:55:40;;;;;;;0.40;0.40;;;;;;;;;;10556868;28;20036;-79
2023/03/14 17:00:46;;;;;;;0.95;0.40;;;;;;;;;;10558792;28;20496;-80
2023/03/14 17:05:54;;;;;;;3.33;0.50;;;;;;;;;;10566606;28;20701;-81
2023/03/14 17:10:57;;;;;;;0.32;0.28;;;;;;;;;;10566260;28;20074;-80
2023/03/14 17:16:15;;;;;;;2.08;0.50;;;;;;;;;;10564390;28;20546;-81
2023/03/14 17:21:20;;;;;;;2.08;0.45;;;;;;;;;;10563399;28;20055;-79
2023/03/14 17:26:24;;;;;;;1.20;0.30;;;;;;;;;;10564058;28;20591;-80
2023/03/14 17:31:27;;;;;;;2.83;0.55;;;;;;;;;;10563753;28;20443;-79
2023/03/14 17:36:34;;;;;;;1.80;0.57;;;;;;;;;;10566303;28;20055;-80
2023/03/14 17:41:38;;;;;;;1.95;0.40;;;;;;;;;;10559507;28;20503;-80
2023/03/14 17:46:41;;;;;;;2.45;0.60;;;;;;;;;;10563402;28;20040;-81
2023/03/14 17:51:46;;;;;;;0.80;0.30;;;;;;;;;;10545904;28;20150;-80
2023/03/14 17:56:49;;;;;;;0.85;0.43;;;;;;;;;;10560963;28;20048;-83
2023/03/14 18:01:52;;;;;;;1.13;0.47;;;;;;;;;;10567240;28;20127;-80
2023/03/14 18:06:58;;;;;;;2.22;0.90;;;;;;;;;;10554546;28;20062;-80
2023/03/14 18:12:02;;;;;;;1.27;0.52;;;;;;;;;;10563826;28;20078;-79
2023/03/14 18:17:11;;;;;;;0.63;0.40;;;;;;;;;;10574733;28;20035;-79
2023/03/14 18:22:19;;;;;;;0.98;0.38;;;;;;;;;;10567007;27;20051;-80
2023/03/14 18:27:24;;;;;;;0.30;0.10;;;;;;;;;;10572251;28;20035;-82
2023/03/14 18:32:29;;;;;;;2.25;0.50;;;;;;;;;;10563532;28;20038;-77
2023/03/14 18:37:34;;;;;;;2.67;0.57;;;;;;;;;;10574719;28;20039;-80
2023/03/14 18:42:40;;;;;;;1.50;0.40;;;;;;;;;;10571717;28;20132;-81
2023/03/14 18:47:43;;;;;;;0.98;0.65;;;;;;;;;;10573069;28;20032;-80
2023/03/14 18:52:47;;;;;;;3.20;0.90;;;;;;;;;;10554710;28;20036;-79
2023/03/14 18:57:52;;;;;;;1.75;1.05;;;;;;;;;;10557545;28;20488;-79
2023/03/14 19:02:54;;;;;;;1.08;0.50;;;;;;;;;;10566198;28;20126;-78
2023/03/14 19:08:01;;;;;;;1.10;0.90;;;;;;;;;;10561114;28;20051;-78
2023/03/14 19:13:06;;;;;;;2.58;0.82;;;;;;;;;;10558838;28;20301;-80
2023/03/14 19:18:10;;;;;;;3.30;0.80;;;;;;;;;;10554798;28;20439;-79
2023/03/14 19:23:15;;;;;;;5.07;1.95;;;;;;;;;;10555997;28;20161;-79
2023/03/14 19:28:18;;;;;;;2.55;0.90;;;;;;;;;;10559788;28;20089;-78
2023/03/14 19:33:26;;;;;;;3.28;0.52;;;;;;;;;;10555457;28;20039;-79
2023/03/14 19:38:31;;;;;;;4.35;1.23;;;;;;;;;;10559198;28;20119;-80
2023/03/14 19:43:35;;;;;;;0.85;0.47;;;;;;;;;;10558849;28;20040;-79
2023/03/14 19:48:40;;;;;;;4.70;1.20;;;;;;;;;;10562305;28;20036;-80
2023/03/14 19:53:45;;;;;;;2.45;0.82;;;;;;;;;;10552105;28;20546;-81
2023/03/14 19:58:51;;;;;;;0.75;0.55;;;;;;;;;;10559290;28;20548;-80
2023/03/14 20:04:04;;;;;;;1.90;0.73;;;;;;;;;;10565761;28;20028;-80
2023/03/14 20:09:17;;;;;;;;;;;;;;;;;;10559612;28;20069;-79
2023/03/14 20:14:32;;;;;;;3.85;0.98;;;;;;;;;;10559960;28;20001;-79
2023/03/14 20:19:35;;;;;;;1.70;0.65;;;;;;;;;;10552513;28;20036;-79
2023/03/14 20:24:40;;;;;;;1.52;0.98;;;;;;;;;;10559395;28;20075;-79
2023/03/14 20:29:45;;;;;;;0.73;0.40;;;;;;;;;;10550369;28;20052;-79
2023/03/14 20:34:49;;;;;;;3.63;0.70;;;;;;;;;;10569035;27;20297;-80
2023/03/14 20:39:54;;;;;;;2.97;1.00;;;;;;;;;;10569329;28;20027;-81
2023/03/14 20:45:00;;;;;;;1.17;1.00;;;;;;;;;;10581992;27;20040;-81
2023/03/14 20:50:14;;;;;;;0.90;0.80;;;;;;;;;;10584637;27;20051;-84
2023/03/14 20:55:32;;;;;;;1.13;0.70;;;;;;;;;;10594886;27;20042;-84
2023/03/14 21:00:38;;;;;;;0.85;0.47;;;;;;;;;;10580613;27;20040;-84
2023/03/14 21:05:46;;;;;;;1.90;0.88;;;;;;;;;;10583220;27;20086;-80
2023/03/14 21:10:50;;;;;;;7.07;1.02;;;;;;;;;;10570337;27;20694;-81
2023/03/14 21:16:04;;;;;;;3.03;0.63;;;;;;;;;;10592945;27;20063;-84
2023/03/14 21:21:08;;;;;;;1.35;0.95;;;;;;;;;;10589998;27;20039;-83
2023/03/14 21:26:12;;;;;;;;;;;;;;;;;;10590351;27;20029;-83
2023/03/14 21:31:27;;;;;;;1.95;1.08;;;;;;;;;;10581745;27;19919;-80
2023/03/14 21:36:30;;;;;;;3.78;1.10;;;;;;;;;;10589573;27;20036;-82
2023/03/14 21:41:34;;;;;;;1.73;0.88;;;;;;;;;;10581057;27;20039;-79
2023/03/14 21:46:38;;;;;;;2.13;0.95;;;;;;;;;;10607895;27;20112;-82
2023/03/14 21:51:44;;;;;;;1.27;0.60;;;;;;;;;;10594244;27;20046;-78
2023/03/14 21:56:48;;;;;;;0.93;0.60;;;;;;;;;;10591009;27;20038;-78
2023/03/14 22:01:54;;;;;;;1.97;1.03;;;;;;;;;;10597688;27;20092;-81
2023/03/14 22:07:02;;;;;;;3.50;1.02;;;;;;;;;;10581634;27;20036;-78
2023/03/14 22:12:05;;;;;;;2.20;1.17;;;;;;;;;;10567810;28;20538;-80
2023/03/14 22:17:10;;;;;;;0.90;0.63;;;;;;;;;;10563053;27;20040;-79
2023/03/14 22:22:16;;;;;;;2.72;1.13;;;;;;;;;;10585209;27;20055;-79
2023/03/14 22:27:19;;;;;;;0.20;0.20;;;;;;;;;;10565380;27;20061;-80
2023/03/14 22:32:24;;;;;;;1.17;0.63;;;;;;;;;;10564148;28;20039;-80
2023/03/14 22:37:32;;;;;;;1.45;0.45;;;;;;;;;;10549699;28;20052;-79
2023/03/14 22:42:35;;;;;;;2.38;0.65;;;;;;;;;;10566864;28;20036;-79
2023/03/14 22:47:40;;;;;;;4.25;0.80;;;;;;;;;;10557979;28;20038;-79
2023/03/14 22:52:48;;;;;;;0.82;0.63;;;;;;;;;;10564773;28;20451;-79
2023/03/14 22:57:56;;;;;;;2.55;1.05;;;;;;;;;;10559880;28;20043;-79
2023/03/14 23:03:04;;;;;;;0.63;0.63;;;;;;;;;;10561941;28;20483;-80
2023/03/14 23:08:07;;;;;;;1.55;1.10;;;;;;;;;;10552348;28;20047;-79
2023/03/14 23:13:15;;;;;;;1.30;0.80;;;;;;;;;;10554914;28;20032;-78
2023/03/14 23:18:20;;;;;;;1.10;0.35;;;;;;;;;;10541872;28;20397;-78
2023/03/14 23:23:24;;;;;;;2.95;0.57;;;;;;;;;;10563797;28;20354;-79
2023/03/14 23:28:31;;;;;;;2.35;0.73;;;;;;;;;;10555394;28;20507;-80
2023/03/14 23:33:36;;;;;;;0.43;0.30;;;;;;;;;;10561566;28;20035;-80
2023/03/14 23:38:41;;;;;;;2.95;0.80;;;;;;;;;;10559287;28;20051;-80
2023/03/14 23:43:45;;;;;;;0.98;0.60;;;;;;;;;;10563828;28;20063;-79
2023/03/14 23:48:49;;;;;;;0.57;0.30;;;;;;;;;;10558075;28;20063;-79
2023/03/14 23:53:54;;;;;;;1.35;0.25;;;;;;;;;;10563305;28;20441;-79
2023/03/14 23:58:58;;;;;;;0.20;0.20;;;;;;;;;;10557468;28;20504;-80
